Route Details

Aircraft Information
Group: North America Fleet
Types: B738, B752, B762, B763
Route Data
Distance: 574nm
Duration: 2h 00m
Origin METAR: CYWG 160039Z 30015G24KT 240V300 3/4SM R31/4000VP6000FT/D R36/5000VP6000FT/D +TSRA VV007 17/17 A3000 RMK RA8 /FRQ LTGIC ALQDS/ CB ALQDS OVRHD MOV E PRESRR SLP162 DENSITY ALT 1200FT
Dest. METAR: KRFD 152354Z 00000KT 10SM OVC095 23/17 A3008 RMK AO2 SLP184 T02330167 10267 20233 50002 $
Freight Data
(for Aug 16, 2022)
Load Factor:
30%
Manifested Cargo: 25,253lbs
Financial History
Total Freight: 29,658lbs
Average Load: 0lbs/flt
Fuel Used: 15,165lbs
Avg. Fuel Used: 0lbs/flt
Fuel Expense: $8,189
Avg. Fuel Expense: $0
Avg. Fuel Cost: $0/lbs
Total Gross Income: $75,628
Pilot Pay: $79
Total Expenses: $15,379
Total Revenue: $51,727
Average Revenue: $0

Capitol Logistics 353




CYWG
Winnipeg / James Armstrong Richardson International Airport
Winnipeg, CA
KRFD
Chicago/Rockford International Airport
Rockford, US

Activity Log

Date Flight Route Aircraft Duration
07/23/2022 CPX353 Not Available B763 1h 34m